Time;durP1;ratioP1;P1;durP2;ratioP2;P2;SDS_P1;SDS_P2;PMS_P1;PMS_P2;Temp;Humidity;BMP_temperature;BMP_pressure;BME280_temperature;BME280_humidity;BME280_pressure;Samples;Min_cycle;Max_cycle;Signal;HPM_P1;HPM_P2
2022/06/24 00:00:37;;;;;;;;;;;20.20;99.90;;;;;;4824296;29;19932;-93
2022/06/24 00:03:03;;;;;;;;;;;20.10;99.90;;;;;;4824437;29;20515;-94
2022/06/24 00:05:29;;;;;;;;;;;20.00;99.90;;;;;;4824697;29;19924;-93
2022/06/24 00:07:55;;;;;;;;;;;19.90;99.90;;;;;;4824889;29;19935;-93
2022/06/24 00:10:22;;;;;;;;;;;19.90;99.90;;;;;;4825189;29;19935;-94
2022/06/24 00:12:49;;;;;;;;;;;19.80;99.90;;;;;;4825527;29;19931;-93
2022/06/24 00:15:14;;;;;;;;;;;19.70;99.90;;;;;;4824752;29;19928;-93
2022/06/24 00:17:41;;;;;;;;;;;19.70;99.90;;;;;;4837173;29;19931;-93
2022/06/24 00:20:08;;;;;;;;;;;19.70;99.90;;;;;;4842392;29;19985;-94
2022/06/24 00:22:42;;;;;;;;;;;19.60;99.90;;;;;;4842707;29;19936;-93
2022/06/24 00:25:10;;;;;;;;;;;19.50;99.90;;;;;;4842839;29;19924;-93
2022/06/24 00:27:36;;;;;;;;;;;19.40;99.90;;;;;;4843275;29;19975;-94
2022/06/24 00:30:10;;;;;;;;;;;19.30;99.90;;;;;;4843156;29;19962;-94
2022/06/24 00:32:36;;;;;;;;;;;19.30;99.90;;;;;;4841651;29;19924;-94
2022/06/24 00:35:04;;;;;;;;;;;19.30;99.90;;;;;;4842291;29;19924;-94
2022/06/24 00:37:30;;;;;;;;;;;19.30;99.90;;;;;;4842109;29;19963;-94
2022/06/24 00:39:57;;;;;;;;;;;19.30;99.90;;;;;;4842306;29;20377;-94
2022/06/24 00:42:23;;;;;;;;;;;19.30;99.90;;;;;;4842070;29;19935;-93
2022/06/24 00:44:58;;;;;;;;;;;19.30;99.90;;;;;;4841789;29;19931;-93
2022/06/24 00:47:24;;;;;;;;;;;19.20;99.90;;;;;;4841825;29;19978;-93
2022/06/24 00:49:52;;;;;;;;;;;19.20;99.90;;;;;;4841957;29;19963;-94
2022/06/24 00:52:18;;;;;;;;;;;19.10;99.90;;;;;;4831762;29;20121;-94
2022/06/24 00:54:44;;;;;;;;;;;19.10;99.90;;;;;;4824150;29;19924;-91
2022/06/24 00:57:10;;;;;;;;;;;19.10;99.90;;;;;;4824595;29;20356;-91
2022/06/24 00:59:36;;;;;;;;;;;19.00;99.90;;;;;;4823556;29;19929;-92
2022/06/24 01:02:04;;;;;;;;;;;19.00;99.90;;;;;;4823929;29;19951;-93
2022/06/24 01:04:30;;;;;;;;;;;19.00;99.90;;;;;;4823520;29;20369;-92
2022/06/24 01:06:56;;;;;;;;;;;18.90;99.90;;;;;;4824526;29;19935;-92
2022/06/24 01:09:22;;;;;;;;;;;18.90;99.90;;;;;;4823973;29;20991;-92
2022/06/24 01:11:48;;;;;;;;;;;18.80;99.90;;;;;;4824017;29;19954;-91
2022/06/24 01:14:13;;;;;;;;;;;18.80;99.90;;;;;;4823152;29;20322;-92
2022/06/24 01:16:39;;;;;;;;;;;18.70;99.90;;;;;;4823730;29;19929;-92
2022/06/24 01:19:06;;;;;;;;;;;18.60;99.90;;;;;;4824303;29;19928;-92
2022/06/24 01:21:34;;;;;;;;;;;18.60;99.90;;;;;;4838730;29;20005;-92
2022/06/24 01:24:02;;;;;;;;;;;18.50;99.90;;;;;;4839672;29;20015;-92
2022/06/24 01:26:28;;;;;;;;;;;18.40;99.90;;;;;;4824351;29;19978;-92
2022/06/24 01:28:53;;;;;;;;;;;18.40;99.90;;;;;;4824262;29;20038;-91
2022/06/24 01:31:19;;;;;;;;;;;18.30;99.90;;;;;;4825836;29;19979;-92
2022/06/24 01:33:44;;;;;;;;;;;18.30;99.90;;;;;;4831496;29;19931;-92
2022/06/24 01:36:10;;;;;;;;;;;18.30;99.90;;;;;;4860052;29;20365;-91
2022/06/24 01:38:35;;;;;;;;;;;18.30;99.90;;;;;;4845212;29;19924;-92
2022/06/24 01:41:01;;;;;;;;;;;18.30;99.90;;;;;;4844713;29;19946;-91
2022/06/24 01:43:27;;;;;;;;;;;18.30;99.90;;;;;;4845064;29;20019;-91
2022/06/24 01:45:52;;;;;;;;;;;18.20;99.90;;;;;;4845271;29;20040;-91
2022/06/24 01:48:18;;;;;;;;;;;18.20;99.90;;;;;;4845034;29;19924;-91
2022/06/24 01:50:43;;;;;;;;;;;18.10;99.90;;;;;;4845458;29;19924;-91
2022/06/24 01:53:09;;;;;;;;;;;18.10;99.90;;;;;;4845185;29;20381;-92
2022/06/24 01:55:34;;;;;;;;;;;18.10;99.90;;;;;;4844815;29;20019;-91
2022/06/24 01:58:00;;;;;;;;;;;18.10;99.90;;;;;;4844965;29;20005;-91
2022/06/24 02:00:26;;;;;;;;;;;18.10;99.90;;;;;;4844723;29;19931;-91
2022/06/24 02:02:52;;;;;;;;;;;18.10;99.90;;;;;;4844804;29;19973;-92
2022/06/24 02:05:18;;;;;;;;;;;18.10;99.90;;;;;;4844741;29;19928;-91
2022/06/24 02:07:44;;;;;;;;;;;18.00;99.90;;;;;;4845167;29;19946;-92
2022/06/24 02:15:38;;;;;;;;;;;17.90;99.90;;;;;;4843217;29;19933;-92
2022/06/24 02:18:04;;;;;;;;;;;17.90;99.90;;;;;;4844433;29;20052;-91
2022/06/24 02:20:29;;;;;;;;;;;17.80;99.90;;;;;;4844433;29;20373;-91
2022/06/24 02:22:55;;;;;;;;;;;17.80;99.90;;;;;;4844132;29;19924;-91
2022/06/24 02:25:20;;;;;;;;;;;17.80;99.90;;;;;;4845006;29;19920;-92
2022/06/24 02:27:46;;;;;;;;;;;17.80;99.90;;;;;;4863524;29;19963;-91
2022/06/24 02:30:12;;;;;;;;;;;17.70;99.90;;;;;;4847182;29;19927;-92
2022/06/24 02:32:38;;;;;;;;;;;17.70;99.90;;;;;;4847955;29;20369;-92
2022/06/24 02:35:04;;;;;;;;;;;17.70;99.90;;;;;;4847955;29;19924;-91
2022/06/24 02:37:29;;;;;;;;;;;17.70;99.90;;;;;;4848602;29;19924;-91
2022/06/24 02:39:55;;;;;;;;;;;17.70;99.90;;;;;;4846512;29;20403;-92
2022/06/24 02:42:20;;;;;;;;;;;17.60;99.90;;;;;;4847632;29;20040;-92
2022/06/24 02:44:46;;;;;;;;;;;17.60;99.90;;;;;;4847782;29;19998;-92
2022/06/24 02:47:11;;;;;;;;;;;17.60;99.90;;;;;;4848001;29;19931;-92
2022/06/24 02:49:37;;;;;;;;;;;17.60;99.90;;;;;;4847685;29;20001;-91
2022/06/24 02:52:03;;;;;;;;;;;17.60;99.90;;;;;;4847206;29;20411;-91
2022/06/24 02:54:28;;;;;;;;;;;17.60;99.90;;;;;;4847379;29;20042;-91
2022/06/24 02:56:54;;;;;;;;;;;17.60;99.90;;;;;;4847017;29;19975;-91
2022/06/24 02:59:21;;;;;;;;;;;17.60;99.90;;;;;;4845563;29;20361;-92
2022/06/24 03:01:46;;;;;;;;;;;17.70;99.90;;;;;;4847435;29;20373;-91
2022/06/24 03:04:12;;;;;;;;;;;17.70;99.90;;;;;;4847250;29;20019;-91
2022/06/24 03:06:37;;;;;;;;;;;17.70;99.90;;;;;;4846817;29;19928;-90
2022/06/24 03:09:03;;;;;;;;;;;17.70;99.90;;;;;;4847079;29;19934;-92
2022/06/24 03:11:28;;;;;;;;;;;17.70;99.90;;;;;;4847275;29;19924;-91
2022/06/24 03:13:54;;;;;;;;;;;17.70;99.90;;;;;;4848564;29;19994;-91
2022/06/24 03:16:20;;;;;;;;;;;17.80;99.90;;;;;;4847106;29;19931;-91
2022/06/24 03:18:45;;;;;;;;;;;17.80;99.90;;;;;;4848446;29;19927;-91
2022/06/24 03:21:11;;;;;;;;;;;17.80;99.90;;;;;;4848521;29;19928;-92
2022/06/24 03:23:36;;;;;;;;;;;17.80;99.90;;;;;;4846918;29;19924;-92
2022/06/24 03:26:03;;;;;;;;;;;17.80;99.90;;;;;;4847775;29;19927;-91
2022/06/24 03:28:29;;;;;;;;;;;17.80;99.90;;;;;;4862424;29;19984;-92
2022/06/24 03:30:55;;;;;;;;;;;17.90;99.90;;;;;;4846879;29;20375;-91
2022/06/24 03:33:20;;;;;;;;;;;17.80;99.90;;;;;;4848412;29;20333;-94
2022/06/24 03:35:46;;;;;;;;;;;17.90;99.90;;;;;;4861592;29;19928;-92
2022/06/24 03:38:12;;;;;;;;;;;17.90;99.90;;;;;;4846887;29;19975;-92
2022/06/24 03:40:37;;;;;;;;;;;18.00;99.90;;;;;;4846889;29;20277;-92
2022/06/24 03:43:03;;;;;;;;;;;18.00;99.90;;;;;;4847138;29;19968;-92
2022/06/24 03:45:29;;;;;;;;;;;18.10;99.90;;;;;;4846523;29;20342;-92
2022/06/24 03:47:54;;;;;;;;;;;18.10;99.90;;;;;;4847196;29;19931;-92
2022/06/24 03:50:20;;;;;;;;;;;18.20;99.90;;;;;;4846489;29;19924;-92
2022/06/24 03:52:45;;;;;;;;;;;18.20;99.90;;;;;;4846762;29;20011;-92
2022/06/24 03:55:11;;;;;;;;;;;18.10;99.90;;;;;;4846512;29;19979;-92
2022/06/24 03:57:37;;;;;;;;;;;18.20;99.90;;;;;;4847122;29;20037;-92
2022/06/24 04:00:04;;;;;;;;;;;18.20;99.90;;;;;;4827995;29;20342;-92
2022/06/24 04:02:29;;;;;;;;;;;18.20;99.90;;;;;;4828241;29;19928;-92
2022/06/24 04:04:55;;;;;;;;;;;18.20;99.90;;;;;;4828400;29;19931;-93
2022/06/24 04:07:20;;;;;;;;;;;18.20;99.90;;;;;;4829254;29;19931;-92
2022/06/24 04:09:46;;;;;;;;;;;18.10;99.90;;;;;;4830181;29;19925;-92
2022/06/24 04:12:12;;;;;;;;;;;18.20;99.90;;;;;;4827997;29;19992;-92
2022/06/24 04:17:22;;;;;;;;;;;18.20;99.90;;;;;;4842749;29;19932;-92
2022/06/24 04:19:48;;;;;;;;;;;18.30;99.90;;;;;;4828055;29;19924;-92
2022/06/24 04:22:13;;;;;;;;;;;18.40;99.90;;;;;;4829027;29;19931;-92
2022/06/24 04:24:39;;;;;;;;;;;18.50;99.90;;;;;;4828039;29;20342;-92
2022/06/24 04:27:05;;;;;;;;;;;18.60;99.90;;;;;;4827597;29;19967;-91
2022/06/24 04:29:31;;;;;;;;;;;18.60;99.90;;;;;;4828210;29;19971;-92
2022/06/24 04:31:57;;;;;;;;;;;18.70;99.90;;;;;;4827932;29;19928;-92
2022/06/24 04:34:22;;;;;;;;;;;18.80;99.90;;;;;;4827303;29;19988;-92
2022/06/24 04:36:48;;;;;;;;;;;19.10;99.90;;;;;;4826584;29;19929;-92
2022/06/24 04:39:14;;;;;;;;;;;19.00;99.90;;;;;;4827503;29;19983;-92
2022/06/24 04:41:39;;;;;;;;;;;19.10;99.90;;;;;;4826681;29;19979;-92
2022/06/24 04:44:05;;;;;;;;;;;19.20;99.90;;;;;;4827493;29;19928;-92
2022/06/24 04:46:30;;;;;;;;;;;19.30;99.90;;;;;;4829198;29;19924;-92
2022/06/24 04:48:56;;;;;;;;;;;19.40;99.90;;;;;;4836683;29;19947;-92
2022/06/24 04:51:22;;;;;;;;;;;19.50;99.90;;;;;;4842184;29;19931;-92
2022/06/24 04:53:48;;;;;;;;;;;19.50;99.90;;;;;;4842748;29;20084;-91
2022/06/24 04:56:13;;;;;;;;;;;19.60;99.90;;;;;;4842317;29;19960;-92
2022/06/24 04:58:39;;;;;;;;;;;19.70;99.90;;;;;;4843791;29;19925;-92
2022/06/24 05:01:05;;;;;;;;;;;19.80;99.90;;;;;;4842454;29;19928;-92
2022/06/24 05:03:30;;;;;;;;;;;19.90;99.90;;;;;;4841599;29;19925;-92
2022/06/24 05:05:56;;;;;;;;;;;20.00;99.90;;;;;;4842179;29;20284;-93
2022/06/24 05:08:21;;;;;;;;;;;20.10;99.90;;;;;;4842305;29;19950;-93
2022/06/24 05:10:47;;;;;;;;;;;20.20;99.90;;;;;;4841867;29;20285;-92
2022/06/24 05:13:12;;;;;;;;;;;20.30;99.90;;;;;;4841999;29;19935;-92
2022/06/24 05:15:38;;;;;;;;;;;20.30;99.90;;;;;;4841959;29;20318;-92
2022/06/24 05:18:04;;;;;;;;;;;20.40;99.90;;;;;;4842067;29;19940;-92
2022/06/24 05:20:29;;;;;;;;;;;20.50;99.90;;;;;;4841352;29;20007;-93
2022/06/24 05:22:55;;;;;;;;;;;20.60;99.90;;;;;;4841576;29;19929;-92
2022/06/24 05:25:20;;;;;;;;;;;20.60;99.90;;;;;;4844790;29;19963;-92
2022/06/24 05:27:47;;;;;;;;;;;20.60;99.90;;;;;;4857559;29;19925;-92
2022/06/24 05:30:12;;;;;;;;;;;20.60;99.90;;;;;;4857136;29;20278;-92
2022/06/24 05:32:38;;;;;;;;;;;20.70;99.90;;;;;;4859282;29;19923;-92
2022/06/24 05:35:06;;;;;;;;;;;20.80;99.90;;;;;;4827079;29;19924;-92
2022/06/24 05:37:33;;;;;;;;;;;20.90;99.90;;;;;;4857252;29;20022;-92
2022/06/24 05:39:58;;;;;;;;;;;21.10;99.90;;;;;;4856945;29;19931;-92
2022/06/24 05:42:24;;;;;;;;;;;21.10;99.90;;;;;;4856518;29;19924;-93
2022/06/24 05:44:49;;;;;;;;;;;21.10;99.90;;;;;;4857385;29;19981;-92
2022/06/24 05:47:15;;;;;;;;;;;21.10;99.90;;;;;;4856699;29;20316;-92
2022/06/24 05:49:41;;;;;;;;;;;21.20;99.90;;;;;;4858746;29;19977;-93
2022/06/24 05:52:06;;;;;;;;;;;21.30;99.90;;;;;;4856789;29;19986;-93
2022/06/24 05:57:16;;;;;;;;;;;21.60;99.90;;;;;;4841405;29;19925;-92
2022/06/24 05:59:42;;;;;;;;;;;21.70;99.90;;;;;;4858698;29;19935;-91
2022/06/24 06:02:08;;;;;;;;;;;21.60;99.90;;;;;;4860652;29;19948;-92
2022/06/24 06:04:34;;;;;;;;;;;21.60;99.90;;;;;;4832502;29;20408;-93
2022/06/24 06:06:59;;;;;;;;;;;21.60;99.90;;;;;;4860440;29;19924;-93
2022/06/24 06:09:25;;;;;;;;;;;21.50;99.90;;;;;;4860602;29;19924;-93
2022/06/24 06:11:51;;;;;;;;;;;21.30;99.90;;;;;;4859635;29;20540;-92
2022/06/24 06:14:16;;;;;;;;;;;21.20;99.90;;;;;;4861877;29;19924;-93
2022/06/24 06:16:42;;;;;;;;;;;21.10;99.90;;;;;;4848338;29;19975;-92
2022/06/24 06:19:07;;;;;;;;;;;21.00;99.90;;;;;;4850845;29;19932;-93
2022/06/24 06:21:33;;;;;;;;;;;20.80;99.90;;;;;;4853607;29;19947;-92
2022/06/24 06:24:01;;;;;;;;;;;20.70;99.90;;;;;;4852674;29;19923;-95
2022/06/24 06:26:35;;;;;;;;;;;20.60;99.90;;;;;;4866617;29;19924;-96
2022/06/24 06:29:08;;;;;;;;;;;20.40;99.90;;;;;;4849442;29;19931;-96
2022/06/24 06:31:37;;;;;;;;;;;20.30;99.90;;;;;;4851011;29;20022;-96
2022/06/24 06:53:02;;;;;;;;;;;20.00;99.90;;;;;;4900521;29;19930;-96
2022/06/24 06:55:27;;;;;;;;;;;20.00;99.90;;;;;;4875309;29;19931;-95
2022/06/24 06:57:53;;;;;;;;;;;20.10;99.90;;;;;;4873538;29;20336;-96
2022/06/24 07:00:19;;;;;;;;;;;20.20;99.90;;;;;;4871774;29;19927;-94
2022/06/24 07:02:44;;;;;;;;;;;20.30;99.90;;;;;;4868237;29;19935;-94
2022/06/24 07:05:10;;;;;;;;;;;20.30;99.90;;;;;;4868656;29;19930;-94
2022/06/24 07:07:36;;;;;;;;;;;20.30;99.90;;;;;;4869183;29;20010;-94
2022/06/24 07:10:01;;;;;;;;;;;20.30;99.90;;;;;;4870090;29;20384;-94
2022/06/24 07:12:27;;;;;;;;;;;20.30;99.90;;;;;;4868899;29;20265;-93
2022/06/24 07:14:53;;;;;;;;;;;20.20;99.90;;;;;;4868836;29;19924;-95
2022/06/24 07:17:19;;;;;;;;;;;20.20;99.90;;;;;;4867531;29;20006;-94
2022/06/24 07:19:45;;;;;;;;;;;20.20;99.90;;;;;;4870814;29;20446;-93
2022/06/24 07:22:11;;;;;;;;;;;20.10;99.90;;;;;;4868489;29;19995;-94
2022/06/24 07:24:46;;;;;;;;;;;20.10;99.90;;;;;;4870127;29;19931;-94
2022/06/24 07:27:14;;;;;;;;;;;20.00;99.90;;;;;;4871185;29;20015;-96
2022/06/24 08:44:43;;;;;;;;;;;21.00;99.90;;;;;;5724151;23;19923;-96
2022/06/24 08:47:17;;;;;;;;;;;20.90;99.90;;;;;;4916046;29;19966;-96
2022/06/24 08:49:49;;;;;;;;;;;20.90;99.90;;;;;;4898736;29;19919;-96
2022/06/24 08:52:25;;;;;;;;;;;20.90;99.90;;;;;;4878659;29;19926;-95
2022/06/24 08:54:51;;;;;;;;;;;21.00;99.90;;;;;;4867469;29;19923;-96
2022/06/24 08:57:17;;;;;;;;;;;21.00;99.90;;;;;;4867332;29;19927;-95
2022/06/24 08:59:43;;;;;;;;;;;21.10;99.90;;;;;;4866674;29;19930;-93
2022/06/24 09:02:12;;;;;;;;;;;21.10;99.90;;;;;;4868053;29;20387;-95
2022/06/24 09:04:41;;;;;;;;;;;21.10;99.90;;;;;;4867792;29;20040;-95
2022/06/24 09:07:07;;;;;;;;;;;21.10;99.90;;;;;;4866421;29;20011;-95
2022/06/24 09:09:32;;;;;;;;;;;21.00;99.90;;;;;;4867468;29;19978;-95
2022/06/24 09:12:01;;;;;;;;;;;21.00;99.90;;;;;;4867502;29;19923;-96
2022/06/24 10:59:10;;;;;;;;;;;19.50;99.90;;;;;;5240822;23;19934;-96
2022/06/24 12:34:59;;;;;;;;;;;19.10;99.90;;;;;;4903898;23;20028;-88
2022/06/24 12:37:29;;;;;;;;;;;19.20;99.90;;;;;;4865541;29;19971;-88
2022/06/24 12:39:57;;;;;;;;;;;18.70;99.90;;;;;;4865540;29;19923;-91
2022/06/24 12:45:34;;;;;;;;;;;19.30;99.90;;;;;;4816534;29;19927;-88
2022/06/24 12:51:05;;;;;;;;;;;19.50;99.90;;;;;;4880554;29;19978;-88
2022/06/24 12:53:49;;;;;;;;;;;;;;;;;;;;;
2022/06/24 13:00:28;;;;;;;;;;;20.00;99.90;;;;;;4840963;29;20011;-89
2022/06/24 13:06:53;;;;;;;;;;;20.50;99.90;;;;;;4916045;23;20015;-88
2022/06/24 13:13:25;;;;;;;;;;;21.20;99.90;;;;;;4878658;29;19924;-89
2022/06/24 13:16:18;;;;;;;;;;;21.60;99.90;;;;;;4877304;29;20398;-89
2022/06/24 13:18:47;;;;;;;;;;;21.50;99.90;;;;;;4846791;29;19924;-88
2022/06/24 13:21:14;;;;;;;;;;;21.60;99.90;;;;;;4846798;29;19971;-88
2022/06/24 13:23:50;;;;;;;;;;;21.70;99.90;;;;;;4846624;29;19923;-88
2022/06/24 13:26:21;;;;;;;;;;;21.70;99.90;;;;;;4845388;29;20288;-89
2022/06/24 13:28:48;;;;;;;;;;;21.80;99.90;;;;;;4846274;29;19923;-90
2022/06/24 13:31:24;;;;;;;;;;;21.80;99.90;;;;;;4846123;29;19927;-90
2022/06/24 13:33:49;;;;;;;;;;;22.00;99.90;;;;;;4846196;29;19924;-90
2022/06/24 13:36:20;;;;;;;;;;;22.20;99.90;;;;;;4846071;29;19920;-90
2022/06/24 13:38:51;;;;;;;;;;;22.30;99.90;;;;;;4846175;29;20017;-90
2022/06/24 13:41:20;;;;;;;;;;;22.40;99.90;;;;;;4845339;29;19975;-90
2022/06/24 13:43:50;;;;;;;;;;;22.40;99.90;;;;;;4845539;29;19928;-89
2022/06/24 13:46:24;;;;;;;;;;;22.40;99.90;;;;;;4844900;29;19924;-90
2022/06/24 13:48:57;;;;;;;;;;;22.50;99.90;;;;;;4845843;29;20442;-89
2022/06/24 13:51:23;;;;;;;;;;;22.40;99.90;;;;;;4845898;29;20034;-89
2022/06/24 13:53:52;;;;;;;;;;;22.40;99.90;;;;;;4845472;29;19970;-89
2022/06/24 13:56:30;;;;;;;;;;;22.50;99.90;;;;;;4845887;29;19927;-89
2022/06/24 13:59:01;;;;;;;;;;;22.60;99.90;;;;;;4845319;29;19924;-90
2022/06/24 14:01:33;;;;;;;;;;;22.70;99.90;;;;;;4844965;29;19927;-90
2022/06/24 14:04:04;;;;;;;;;;;23.00;99.90;;;;;;4845967;29;19927;-90
2022/06/24 14:06:30;;;;;;;;;;;23.00;99.90;;;;;;4845180;29;19951;-90
2022/06/24 14:08:59;;;;;;;;;;;23.10;99.90;;;;;;4846182;29;19943;-90
2022/06/24 14:11:30;;;;;;;;;;;23.20;99.90;;;;;;4846144;29;19923;-90
2022/06/24 14:13:56;;;;;;;;;;;23.20;99.90;;;;;;4845750;29;19924;-90
2022/06/24 14:16:21;;;;;;;;;;;23.30;99.90;;;;;;4845798;29;19934;-90
2022/06/24 14:18:47;;;;;;;;;;;23.40;99.90;;;;;;4845706;29;20365;-89
2022/06/24 14:21:16;;;;;;;;;;;23.50;99.90;;;;;;4848258;29;19928;-91
2022/06/24 14:26:51;;;;;;;;;;;23.80;99.90;;;;;;4880297;29;19931;-91
2022/06/24 14:29:29;;;;;;;;;;;24.00;99.90;;;;;;4849020;29;19971;-90
2022/06/24 14:31:55;;;;;;;;;;;24.10;99.90;;;;;;4849125;29;19931;-90
2022/06/24 14:34:21;;;;;;;;;;;24.10;99.90;;;;;;4849421;29;20292;-91
2022/06/24 14:36:47;;;;;;;;;;;24.00;99.90;;;;;;4848358;29;20363;-90
2022/06/24 14:42:21;;;;;;;;;;;24.20;99.90;;;;;;4879175;29;19928;-91
2022/06/24 14:44:48;;;;;;;;;;;24.30;99.90;;;;;;4848997;29;19925;-92
2022/06/24 14:47:20;;;;;;;;;;;24.40;99.90;;;;;;4847914;29;19919;-91
2022/06/24 14:49:55;;;;;;;;;;;24.40;99.90;;;;;;4847084;29;20056;-91
2022/06/24 14:52:23;;;;;;;;;;;24.40;99.90;;;;;;4848808;29;19919;-90
2022/06/24 14:54:58;;;;;;;;;;;24.40;99.90;;;;;;4849293;29;19928;-91
2022/06/24 14:57:29;;;;;;;;;;;24.40;99.90;;;;;;4848000;29;20356;-92
2022/06/24 14:59:55;;;;;;;;;;;24.30;99.90;;;;;;4848824;29;20067;-92
2022/06/24 15:02:27;;;;;;;;;;;24.30;99.90;;;;;;4847835;29;19953;-92
2022/06/24 15:04:52;;;;;;;;;;;24.40;99.90;;;;;;4848859;29;19923;-91
2022/06/24 15:07:18;;;;;;;;;;;24.40;99.90;;;;;;4847949;29;19934;-92
2022/06/24 15:09:44;;;;;;;;;;;24.20;99.90;;;;;;4848528;29;19924;-92
2022/06/24 15:12:11;;;;;;;;;;;24.30;99.90;;;;;;4848391;29;20383;-92
2022/06/24 15:20:42;;;;;;;;;;;24.20;99.90;;;;;;4846346;29;20003;-92
2022/06/24 15:23:08;;;;;;;;;;;24.20;99.90;;;;;;4863533;29;19931;-91
2022/06/24 15:25:37;;;;;;;;;;;24.30;99.90;;;;;;4847619;29;19927;-91
2022/06/24 15:28:06;;;;;;;;;;;24.50;99.90;;;;;;4848695;29;20384;-96
2022/06/24 15:30:35;;;;;;;;;;;24.70;99.90;;;;;;4863256;29;19935;-91
2022/06/24 15:33:12;;;;;;;;;;;24.70;99.90;;;;;;4882169;29;19939;-95
2022/06/24 15:35:38;;;;;;;;;;;24.60;99.90;;;;;;4879085;29;19924;-93
2022/06/24 15:38:39;;;;;;;;;;;24.40;99.90;;;;;;4883113;23;20610;-96
2022/06/24 15:41:07;;;;;;;;;;;24.20;99.90;;;;;;4874318;23;19927;-94
2022/06/24 15:43:33;;;;;;;;;;;24.00;99.90;;;;;;4897536;29;19924;-94
2022/06/24 15:46:09;;;;;;;;;;;24.00;99.90;;;;;;4866302;29;20370;-93
2022/06/24 15:48:37;;;;;;;;;;;24.00;99.90;;;;;;4866495;29;19927;-92
2022/06/24 15:51:03;;;;;;;;;;;24.10;99.90;;;;;;4865978;29;19987;-92
2022/06/24 15:53:29;;;;;;;;;;;24.40;99.90;;;;;;4866666;29;19929;-92
2022/06/24 15:55:55;;;;;;;;;;;24.60;99.90;;;;;;4865802;29;20369;-91
2022/06/24 15:58:23;;;;;;;;;;;24.60;99.90;;;;;;4866026;29;19927;-90
2022/06/24 16:00:51;;;;;;;;;;;24.60;99.90;;;;;;4865215;29;20428;-92
2022/06/24 16:03:20;;;;;;;;;;;24.60;99.90;;;;;;4866061;29;19979;-93
2022/06/24 16:05:46;;;;;;;;;;;24.80;99.90;;;;;;4866561;29;19927;-94
2022/06/24 16:10:47;;;;;;;;;;;25.40;99.90;;;;;;5361839;23;20307;-95
2022/06/24 16:13:13;;;;;;;;;;;25.60;99.90;;;;;;4869616;29;20375;-96
2022/06/24 16:15:41;;;;;;;;;;;25.70;99.90;;;;;;4870395;29;20367;-96
2022/06/24 16:18:07;;;;;;;;;;;25.60;99.90;;;;;;4868689;29;19923;-96
2022/06/24 16:20:32;;;;;;;;;;;25.30;99.90;;;;;;4868748;29;19938;-96
2022/06/24 16:22:58;;;;;;;;;;;25.10;99.90;;;;;;4869036;29;19924;-95
2022/06/24 16:30:52;;;;;;;;;;;24.80;99.90;;;;;;4887719;29;19927;-95
2022/06/24 16:33:17;;;;;;;;;;;24.90;99.90;;;;;;4868765;29;20019;-96
2022/06/24 16:35:43;;;;;;;;;;;24.70;99.90;;;;;;4868615;29;19923;-95
2022/06/24 16:38:09;;;;;;;;;;;24.60;99.90;;;;;;4869213;29;19979;-95
2022/06/24 16:40:35;;;;;;;;;;;24.60;99.90;;;;;;4868537;29;19923;-96
2022/06/24 16:43:16;;;;;;;;;;;24.60;99.90;;;;;;4868264;29;20365;-96
2022/06/24 16:45:44;;;;;;;;;;;24.60;99.90;;;;;;4867448;29;19935;-95
2022/06/24 16:48:09;;;;;;;;;;;24.70;99.90;;;;;;4863815;29;19924;-95
2022/06/24 16:50:35;;;;;;;;;;;24.80;99.90;;;;;;4867967;29;20300;-96
2022/06/24 16:53:01;;;;;;;;;;;25.00;99.90;;;;;;4866250;29;19923;-96
2022/06/24 16:55:26;;;;;;;;;;;24.90;99.90;;;;;;4866776;29;20266;-96
2022/06/24 16:57:53;;;;;;;;;;;24.90;99.90;;;;;;4868990;29;19932;-95
2022/06/24 17:00:19;;;;;;;;;;;25.00;99.90;;;;;;4865958;29;19923;-96
2022/06/24 17:02:45;;;;;;;;;;;25.30;99.90;;;;;;4867875;29;19930;-96
2022/06/24 17:05:10;;;;;;;;;;;25.30;99.90;;;;;;4865197;29;20013;-96
2022/06/24 17:07:36;;;;;;;;;;;25.30;99.90;;;;;;4870739;29;19931;-96
2022/06/24 17:10:02;;;;;;;;;;;25.30;99.90;;;;;;4866108;29;19931;-96
2022/06/24 17:12:28;;;;;;;;;;;25.20;99.90;;;;;;4866320;29;19928;-96
2022/06/24 17:14:54;;;;;;;;;;;25.00;99.90;;;;;;4848127;29;19953;-96
2022/06/24 17:17:19;;;;;;;;;;;24.80;99.90;;;;;;4848094;29;19934;-96
2022/06/24 17:19:45;;;;;;;;;;;24.50;99.90;;;;;;4864310;29;19970;-96
2022/06/24 17:22:10;;;;;;;;;;;24.50;99.90;;;;;;4867078;29;19927;-95
2022/06/24 17:24:37;;;;;;;;;;;24.30;99.90;;;;;;4867861;29;19959;-96
2022/06/24 17:27:02;;;;;;;;;;;24.10;99.90;;;;;;4867608;29;20271;-94
2022/06/24 17:29:29;;;;;;;;;;;24.00;99.90;;;;;;4867385;29;20070;-94
2022/06/24 17:31:55;;;;;;;;;;;23.80;99.90;;;;;;4867271;29;19923;-96
2022/06/24 17:34:20;;;;;;;;;;;23.70;99.90;;;;;;4868564;29;19923;-95
2022/06/24 17:36:46;;;;;;;;;;;23.70;99.90;;;;;;4869691;29;19911;-93
2022/06/24 17:39:21;;;;;;;;;;;23.50;99.90;;;;;;4880910;29;19919;-96
2022/06/24 17:41:58;;;;;;;;;;;23.40;99.90;;;;;;4895087;29;19912;-96
2022/06/24 17:44:28;;;;;;;;;;;23.20;99.90;;;;;;4881521;29;19923;-96
2022/06/24 17:47:00;;;;;;;;;;;23.00;99.90;;;;;;4933034;23;19930;-93
2022/06/24 17:49:35;;;;;;;;;;;23.00;99.90;;;;;;4845773;29;19924;-94
2022/06/24 17:52:01;;;;;;;;;;;23.00;99.90;;;;;;4845742;29;19950;-95
2022/06/24 17:54:27;;;;;;;;;;;22.90;99.90;;;;;;4846282;29;19924;-92
2022/06/24 17:56:56;;;;;;;;;;;22.80;99.90;;;;;;5166501;23;19947;-96
2022/06/24 17:59:23;;;;;;;;;;;22.80;99.90;;;;;;4907104;29;19939;-96
2022/06/24 18:01:58;;;;;;;;;;;23.10;99.90;;;;;;4886690;29;19924;-96
2022/06/24 18:07:19;;;;;;;;;;;22.90;99.90;;;;;;4866804;29;19920;-96
2022/06/24 18:09:44;;;;;;;;;;;23.00;99.90;;;;;;4830653;29;19931;-96
2022/06/24 18:12:15;;;;;;;;;;;22.90;99.90;;;;;;4827907;29;19924;-96
2022/06/24 18:15:15;;;;;;;;;;;23.00;99.90;;;;;;4817918;29;19928;-96
2022/06/24 18:20:52;;;;;;;;;;;22.70;99.90;;;;;;4810212;29;19932;-96
2022/06/24 18:23:28;;;;;;;;;;;;;;;;;;;;;
2022/06/24 18:25:54;;;;;;;;;;;22.40;99.90;;;;;;4833001;29;19924;-96
2022/06/24 18:28:22;;;;;;;;;;;22.50;99.90;;;;;;4817051;29;19924;-96
2022/06/24 18:30:51;;;;;;;;;;;22.20;99.90;;;;;;4817011;29;20030;-95
2022/06/24 18:33:19;;;;;;;;;;;22.10;99.90;;;;;;4818320;29;19928;-96
2022/06/24 18:35:52;;;;;;;;;;;22.00;99.90;;;;;;4817075;29;19968;-96
2022/06/24 18:38:18;;;;;;;;;;;21.90;99.90;;;;;;4817609;29;19925;-96
2022/06/24 18:40:46;;;;;;;;;;;21.70;99.90;;;;;;4821121;29;20035;-95
2022/06/24 18:43:15;;;;;;;;;;;21.60;99.90;;;;;;4816992;29;19931;-95
2022/06/24 18:45:41;;;;;;;;;;;21.60;99.90;;;;;;4817235;29;19924;-93
2022/06/24 18:48:06;;;;;;;;;;;21.60;99.90;;;;;;4817506;29;20486;-92
2022/06/24 18:50:33;;;;;;;;;;;21.50;99.90;;;;;;4818145;29;20403;-94
2022/06/24 18:52:59;;;;;;;;;;;21.50;99.90;;;;;;4816577;29;19928;-94
2022/06/24 18:55:24;;;;;;;;;;;21.50;99.90;;;;;;4816672;29;19928;-94
2022/06/24 18:57:51;;;;;;;;;;;21.50;99.90;;;;;;4816967;29;19932;-95
2022/06/24 19:00:16;;;;;;;;;;;21.40;99.90;;;;;;4816681;29;19929;-95
2022/06/24 19:02:45;;;;;;;;;;;21.40;99.90;;;;;;4818507;29;19936;-95
2022/06/24 19:05:10;;;;;;;;;;;21.30;99.90;;;;;;4817190;29;19925;-95
2022/06/24 19:07:36;;;;;;;;;;;21.20;99.90;;;;;;4796948;29;20053;-95
2022/06/24 19:10:02;;;;;;;;;;;21.10;99.90;;;;;;4798047;29;19928;-96
2022/06/24 19:12:28;;;;;;;;;;;21.10;99.90;;;;;;4809575;29;19935;-95
2022/06/24 19:14:56;;;;;;;;;;;21.10;99.90;;;;;;4821316;29;19959;-94
2022/06/24 19:17:22;;;;;;;;;;;21.00;99.90;;;;;;4810649;29;19928;-96
2022/06/24 19:19:47;;;;;;;;;;;21.00;99.90;;;;;;4805186;29;19928;-93
2022/06/24 19:22:13;;;;;;;;;;;20.90;99.90;;;;;;4811997;29;19928;-95
2022/06/24 19:24:40;;;;;;;;;;;20.90;99.90;;;;;;4814897;29;19932;-96
2022/06/24 19:27:06;;;;;;;;;;;20.90;99.90;;;;;;4811677;29;19924;-96
2022/06/24 19:29:32;;;;;;;;;;;20.90;99.90;;;;;;4814089;29;20007;-95
2022/06/24 19:31:58;;;;;;;;;;;20.80;99.90;;;;;;4803378;29;20028;-96
2022/06/24 19:34:24;;;;;;;;;;;20.90;99.90;;;;;;4801484;29;19928;-96
2022/06/24 19:36:50;;;;;;;;;;;20.80;99.90;;;;;;4795029;29;19989;-94
2022/06/24 19:39:16;;;;;;;;;;;20.80;99.90;;;;;;4794766;29;19928;-95
2022/06/24 19:41:41;;;;;;;;;;;20.70;99.90;;;;;;4793607;29;19984;-96
2022/06/24 19:44:10;;;;;;;;;;;20.80;99.90;;;;;;4795638;29;19975;-95
2022/06/24 19:46:36;;;;;;;;;;;20.70;99.90;;;;;;4795536;29;20069;-96
2022/06/24 19:49:02;;;;;;;;;;;20.70;99.90;;;;;;4795438;29;19993;-95
2022/06/24 19:51:28;;;;;;;;;;;20.70;99.90;;;;;;4795913;29;19964;-95
2022/06/24 19:53:54;;;;;;;;;;;20.70;99.90;;;;;;4806861;29;19996;-95
2022/06/24 19:56:21;;;;;;;;;;;20.60;99.90;;;;;;4813376;29;19929;-94
2022/06/24 19:58:47;;;;;;;;;;;20.50;99.90;;;;;;4811799;29;19929;-96
2022/06/24 20:01:13;;;;;;;;;;;20.50;99.90;;;;;;4809940;29;19924;-95
2022/06/24 20:06:25;;;;;;;;;;;20.30;99.90;;;;;;4825944;29;19928;-96
2022/06/24 20:08:51;;;;;;;;;;;20.10;99.90;;;;;;4811228;29;19928;-96